createdAt,value
2018-05-10T00:01:44.648Z,58.70
2018-05-10T00:04:12.202Z,58.80
2018-05-10T00:06:39.787Z,58.60
2018-05-10T00:09:08.134Z,59.00
2018-05-10T00:11:35.704Z,58.90
2018-05-10T00:14:03.271Z,59.10
2018-05-10T00:16:30.859Z,59.30
2018-05-10T00:18:58.405Z,59.40
2018-05-10T00:21:26.744Z,59.20
2018-05-10T00:23:54.296Z,59.10
2018-05-10T00:26:21.871Z,59.30
2018-05-10T00:28:49.415Z,59.40
2018-05-10T00:31:17.025Z,59.40
2018-05-10T00:33:44.572Z,59.60
2018-05-10T00:36:12.889Z,59.60
2018-05-10T00:38:40.485Z,59.60
2018-05-10T00:41:08.029Z,59.50
2018-05-10T00:43:35.615Z,59.60
2018-05-10T00:46:03.936Z,59.90
2018-05-10T00:48:31.516Z,59.90
2018-05-10T00:50:59.077Z,60.00
2018-05-10T00:53:26.662Z,60.00
2018-05-10T00:55:54.207Z,60.00
2018-05-10T00:58:21.792Z,59.90
2018-05-10T01:00:50.161Z,60.20
2018-05-10T01:03:17.734Z,60.10
2018-05-10T01:05:46.052Z,60.30
2018-05-10T01:08:13.633Z,60.30
2018-05-10T01:10:41.188Z,60.60
2018-05-10T01:13:08.817Z,60.60
2018-05-10T01:15:36.365Z,60.60
2018-05-10T01:18:03.955Z,60.80
2018-05-10T01:20:32.168Z,60.90
2018-05-10T01:23:00.620Z,60.90
2018-05-10T01:25:28.223Z,60.80
2018-05-10T01:27:55.807Z,61.10
2018-05-10T01:30:23.357Z,61.30
2018-05-10T01:32:50.940Z,61.60
2018-05-10T01:35:30.288Z,61.60
2018-05-10T01:37:58.640Z,62.10
2018-05-10T01:40:26.192Z,62.10
2018-05-10T01:42:53.779Z,62.20
2018-05-10T01:45:21.333Z,62.40
2018-05-10T01:47:48.919Z,62.00
2018-05-10T01:50:16.459Z,62.20
2018-05-10T01:52:44.047Z,62.70
2018-05-10T01:55:12.356Z,62.40
2018-05-10T01:57:39.940Z,62.40
2018-05-10T02:00:07.494Z,62.50
2018-05-10T02:02:35.061Z,62.50
2018-05-10T02:05:02.617Z,63.10
2018-05-10T02:07:30.205Z,63.60
2018-05-10T02:09:57.755Z,63.60
2018-05-10T02:12:25.350Z,63.40
2018-05-10T02:14:52.893Z,63.40
2018-05-10T02:17:21.205Z,64.00
2018-05-10T02:19:48.787Z,63.90
2018-05-10T02:22:16.341Z,64.00
2018-05-10T02:24:44.870Z,64.00
2018-05-10T02:27:13.187Z,64.30
2018-05-10T02:29:40.805Z,64.10
2018-05-10T02:32:08.373Z,64.10
2018-05-10T02:34:35.955Z,64.10
2018-05-10T02:37:03.500Z,64.20
2018-05-10T02:39:31.082Z,64.40
2018-05-10T02:41:58.631Z,64.50
2018-05-10T02:44:26.218Z,64.80
2018-05-10T02:46:53.761Z,64.90
2018-05-10T02:49:21.339Z,65.30
2018-05-10T02:51:48.887Z,65.90
2018-05-10T02:54:16.484Z,66.00
2018-05-10T02:56:44.793Z,66.20
2018-05-10T02:59:12.377Z,66.10
2018-05-10T03:01:39.936Z,65.90
2018-05-10T03:04:07.523Z,66.00
2018-05-10T03:06:35.083Z,65.80
2018-05-10T03:09:02.670Z,65.90
2018-05-10T03:11:30.979Z,65.60
2018-05-10T03:13:58.561Z,65.50
2018-05-10T03:16:26.113Z,65.60
2018-05-10T03:18:53.700Z,65.90
2018-05-10T03:21:22.018Z,66.40
2018-05-10T03:23:49.562Z,66.20
2018-05-10T03:26:17.149Z,66.50
2018-05-10T03:28:44.758Z,66.10
2018-05-10T03:31:13.100Z,66.90
2018-05-10T03:33:40.654Z,66.80
2018-05-10T03:36:08.239Z,67.30
2018-05-10T03:38:35.790Z,66.90
2018-05-10T03:41:03.369Z,66.70
2018-05-10T03:43:31.682Z,67.10
2018-05-10T03:45:59.263Z,67.00
2018-05-10T03:48:26.815Z,67.10
2018-05-10T03:50:54.390Z,67.60
2018-05-10T03:53:21.933Z,67.80
2018-05-10T03:55:49.519Z,68.00
2018-05-10T03:58:17.068Z,68.70
2018-05-10T04:00:44.646Z,67.30
2018-05-10T04:06:27.480Z,70.30
2018-05-10T04:09:07.496Z,68.60
2018-05-10T04:11:35.052Z,68.40
2018-05-10T04:14:02.575Z,68.70
2018-05-10T04:16:30.128Z,68.20
2018-05-10T04:18:57.651Z,68.00
2018-05-10T04:21:26.001Z,68.10
2018-05-10T04:23:53.524Z,68.00
2018-05-10T04:26:21.084Z,68.00
2018-05-10T04:28:48.611Z,68.00
2018-05-10T04:31:16.183Z,68.00
2018-05-10T04:33:43.704Z,68.10
2018-05-10T04:36:11.238Z,68.80
2018-05-10T04:38:38.796Z,68.50
2018-05-10T04:41:06.317Z,68.20
2018-05-10T04:43:34.651Z,68.20
2018-05-10T04:46:02.181Z,68.10
2018-05-10T04:48:29.744Z,68.70
2018-05-10T04:50:57.268Z,69.10
2018-05-10T04:53:24.846Z,69.30
2018-05-10T04:55:53.141Z,69.10
2018-05-10T04:58:20.693Z,68.90
2018-05-10T05:00:48.229Z,68.80
2018-05-10T05:03:15.821Z,68.70
2018-05-10T05:05:44.100Z,68.50
2018-05-10T05:08:11.660Z,68.30
2018-05-10T05:10:39.188Z,68.70
2018-05-10T05:13:06.739Z,68.60
2018-05-10T05:15:34.264Z,68.80
2018-05-10T05:18:01.813Z,68.80
2018-05-10T05:20:29.336Z,68.70
2018-05-10T05:22:57.710Z,68.90
2018-05-10T05:25:25.236Z,68.70
2018-05-10T05:27:52.799Z,68.70
2018-05-10T05:30:20.328Z,69.10
2018-05-10T05:32:47.993Z,69.00
2018-05-10T05:35:15.445Z,69.00
2018-05-10T05:37:42.972Z,68.80
2018-05-10T05:40:10.532Z,68.90
2018-05-10T05:42:38.052Z,69.40
2018-05-10T05:45:05.603Z,68.70
2018-05-10T05:47:33.128Z,68.60
2018-05-10T05:50:01.448Z,68.00
2018-05-10T05:52:28.980Z,67.80
2018-05-10T05:54:56.546Z,67.90
2018-05-10T05:57:24.084Z,68.20
2018-05-10T05:59:52.456Z,68.10
2018-05-10T06:02:20.746Z,67.70
2018-05-10T06:04:49.088Z,67.50
2018-05-10T06:07:16.629Z,67.40
2018-05-10T06:09:44.187Z,67.80
2018-05-10T06:12:11.718Z,67.60
2018-05-10T06:14:39.273Z,67.60
2018-05-10T06:17:07.564Z,67.30
2018-05-10T06:19:35.120Z,67.10
2018-05-10T06:22:02.644Z,66.80
2018-05-10T06:24:30.976Z,66.00
2018-05-10T06:26:58.512Z,65.90
2018-05-10T06:29:26.073Z,65.70
2018-05-10T06:31:53.592Z,64.90
2018-05-10T06:34:21.175Z,64.40
2018-05-10T06:36:49.472Z,63.90
2018-05-10T06:39:16.997Z,63.80
2018-05-10T06:41:44.560Z,64.00
2018-05-10T06:44:12.094Z,63.90
2018-05-10T06:46:40.756Z,63.20
2018-05-10T06:49:08.300Z,63.20
2018-05-10T06:51:35.862Z,62.60
2018-05-10T06:54:03.403Z,63.10
2018-05-10T06:56:31.734Z,63.30
2018-05-10T06:58:59.260Z,64.00
2018-05-10T07:01:26.830Z,63.40
2018-05-10T07:03:54.374Z,63.60
2018-05-10T07:06:21.949Z,63.80
2018-05-10T07:08:49.492Z,63.60
2018-05-10T07:11:17.250Z,63.80
2018-05-10T07:13:44.925Z,64.30
2018-05-10T07:16:12.508Z,64.10
2018-05-10T07:18:40.032Z,64.10
2018-05-10T07:21:07.605Z,64.00
2018-05-10T07:23:35.137Z,64.10
2018-05-10T07:26:02.737Z,65.00
2018-05-10T07:28:30.284Z,64.00
2018-05-10T07:30:57.963Z,64.00
2018-05-10T07:33:25.500Z,64.10
2018-05-10T07:35:53.792Z,63.70
2018-05-10T07:38:21.348Z,63.60
2018-05-10T07:40:48.882Z,63.50
2018-05-10T07:43:16.435Z,63.30
2018-05-10T07:45:43.987Z,63.90
2018-05-10T07:48:11.548Z,63.20
2018-05-10T07:50:39.076Z,63.70
2018-05-10T07:53:06.646Z,63.30
2018-05-10T07:55:34.173Z,63.00
2018-05-10T07:58:01.737Z,62.60
2018-05-10T08:00:29.260Z,62.30
2018-05-10T08:02:56.820Z,62.00
2018-05-10T08:05:24.361Z,61.90
2018-05-10T08:07:51.933Z,62.30
2018-05-10T08:10:19.460Z,62.30
2018-05-10T08:12:47.025Z,60.90
2018-05-10T08:15:14.547Z,60.70
2018-05-10T08:17:42.116Z,60.20
2018-05-10T08:20:09.645Z,60.10
2018-05-10T08:22:37.973Z,60.50
2018-05-10T08:25:05.505Z,60.00
2018-05-10T08:27:49.827Z,60.00
2018-05-10T08:30:18.176Z,61.00
2018-05-10T08:32:45.720Z,60.20
2018-05-10T08:35:13.273Z,60.10
2018-05-10T08:37:40.840Z,60.10
2018-05-10T08:40:08.367Z,60.20
2018-05-10T08:42:36.692Z,60.50
2018-05-10T08:45:04.331Z,60.50
2018-05-10T08:47:33.104Z,60.60
2018-05-10T08:50:01.397Z,60.60
2018-05-10T08:52:28.959Z,60.60
2018-05-10T08:54:56.491Z,60.40
2018-05-10T08:57:24.830Z,60.10
2018-05-10T08:59:52.473Z,60.00
2018-05-10T09:02:19.944Z,59.80
2018-05-10T09:04:47.499Z,59.90
2018-05-10T09:07:15.025Z,59.60
2018-05-10T09:09:42.593Z,59.70
2018-05-10T09:12:10.129Z,59.20
2018-05-10T09:14:38.448Z,58.70
2018-05-10T09:17:05.972Z,58.70
2018-05-10T09:19:34.299Z,58.20
2018-05-10T09:22:01.836Z,58.20
2018-05-10T09:24:29.402Z,58.10
2018-05-10T09:26:56.933Z,58.00
2018-05-10T09:29:25.267Z,57.30
2018-05-10T09:31:52.791Z,57.30
2018-05-10T09:34:20.351Z,57.40
2018-05-10T09:36:47.892Z,57.40
2018-05-10T09:39:16.327Z,57.10
2018-05-10T09:41:43.756Z,57.00
2018-05-10T09:44:11.317Z,57.10
2018-05-10T09:46:38.851Z,56.90
2018-05-10T09:49:07.171Z,56.90
2018-05-10T09:51:34.701Z,56.80
2018-05-10T09:54:02.265Z,56.70
2018-05-10T09:56:29.792Z,56.70
2018-05-10T09:58:57.362Z,56.70
2018-05-10T10:01:25.656Z,56.20
2018-05-10T10:03:53.217Z,56.20
2018-05-10T10:06:20.773Z,56.00
2018-05-10T10:08:49.097Z,55.80
2018-05-10T10:11:16.634Z,55.80
2018-05-10T10:13:44.196Z,55.70
2018-05-10T10:16:11.721Z,55.40
2018-05-10T10:18:40.044Z,55.70
2018-05-10T10:21:07.576Z,55.70
2018-05-10T10:23:35.136Z,55.60
2018-05-10T10:26:02.666Z,55.40
2018-05-10T10:28:30.997Z,54.90
2018-05-10T10:30:58.520Z,54.70
2018-05-10T10:33:26.813Z,54.10
2018-05-10T10:35:54.372Z,54.00
2018-05-10T10:38:21.893Z,53.80
2018-05-10T10:40:49.449Z,54.10
2018-05-10T10:43:16.980Z,54.40
2018-05-10T10:45:44.546Z,54.40
2018-05-10T10:48:12.077Z,54.40
2018-05-10T10:50:39.697Z,54.60
2018-05-10T10:53:07.244Z,54.70
2018-05-10T10:55:34.804Z,54.50
2018-05-10T10:58:02.330Z,54.50
2018-05-10T11:00:29.888Z,54.30
2018-05-10T11:02:57.417Z,54.10
2018-05-10T11:05:25.757Z,54.40
2018-05-10T11:07:53.290Z,54.30
2018-05-10T11:10:20.856Z,54.30
2018-05-10T11:12:48.392Z,54.40
2018-05-10T11:15:15.967Z,54.60
2018-05-10T11:17:43.492Z,54.20
2018-05-10T11:20:11.815Z,54.60
2018-05-10T11:22:39.371Z,54.50
2018-05-10T11:25:06.912Z,55.00
2018-05-10T11:27:34.441Z,55.40
2018-05-10T11:30:02.002Z,55.40
2018-05-10T11:32:29.525Z,55.60
2018-05-10T11:34:57.085Z,55.90
2018-05-10T11:37:24.616Z,55.90
2018-05-10T11:39:52.172Z,55.90
2018-05-10T11:42:19.697Z,56.30
2018-05-10T11:44:47.256Z,56.60
2018-05-10T11:47:14.786Z,56.70
2018-05-10T11:49:42.351Z,56.70
2018-05-10T11:52:09.892Z,57.00
2018-05-10T11:54:37.457Z,56.90
2018-05-10T11:57:04.975Z,57.00
2018-05-10T11:59:33.305Z,57.50
2018-05-10T12:02:00.864Z,57.50
2018-05-10T12:04:29.160Z,57.90
2018-05-10T12:06:56.729Z,57.30
2018-05-10T12:09:24.259Z,57.40
2018-05-10T12:11:51.825Z,57.30
2018-05-10T12:14:19.352Z,57.60
2018-05-10T12:16:46.916Z,58.00
2018-05-10T12:19:14.443Z,57.90
2018-05-10T12:21:42.772Z,58.20
2018-05-10T12:24:10.310Z,58.10
2018-05-10T12:26:37.874Z,58.30
2018-05-10T12:29:05.425Z,58.40
2018-05-10T12:31:32.985Z,58.70
2018-05-10T12:34:00.517Z,58.60
2018-05-10T12:36:28.081Z,58.80
2018-05-10T12:38:55.617Z,59.50
2018-05-10T12:41:23.187Z,58.90
2018-05-10T12:43:50.727Z,58.80
2018-05-10T12:46:18.298Z,58.70
2018-05-10T12:48:45.836Z,58.90
2018-05-10T12:51:13.401Z,58.70
2018-05-10T12:53:40.933Z,58.80
2018-05-10T12:56:08.558Z,59.00
2018-05-10T12:58:37.477Z,59.00
2018-05-10T13:01:06.379Z,59.30
2018-05-10T13:03:34.064Z,59.20
2018-05-10T13:06:01.622Z,59.10
2018-05-10T13:08:29.229Z,59.50
2018-05-10T13:10:56.717Z,59.90
2018-05-10T13:13:24.826Z,60.00
2018-05-10T13:15:52.450Z,60.00
2018-05-10T13:18:20.000Z,60.00
2018-05-10T13:20:48.336Z,60.20
2018-05-10T13:23:16.344Z,60.10
2018-05-10T13:25:45.481Z,60.30
2018-05-10T13:28:13.842Z,60.70
2018-05-10T13:30:43.030Z,59.80
2018-05-10T13:33:11.421Z,59.90
2018-05-10T13:35:38.993Z,59.80
2018-05-10T13:38:06.521Z,60.00
2018-05-10T13:40:34.832Z,60.10
2018-05-10T13:43:02.383Z,60.00
2018-05-10T13:45:29.908Z,59.60
2018-05-10T13:47:57.477Z,59.50
2018-05-10T13:50:25.771Z,59.00
2018-05-10T13:52:53.367Z,59.00
2018-05-10T13:55:20.866Z,59.00
2018-05-10T13:57:49.259Z,59.60
2018-05-10T14:00:16.748Z,59.00
2018-05-10T14:02:44.304Z,58.80
2018-05-10T14:05:11.832Z,58.80
2018-05-10T14:07:40.153Z,58.80
2018-05-10T14:10:07.668Z,58.80
2018-05-10T14:12:35.992Z,58.40
2018-05-10T14:15:03.512Z,58.30
2018-05-10T14:17:31.828Z,57.50
2018-05-10T14:19:59.353Z,57.50
2018-05-10T14:22:27.668Z,57.60
2018-05-10T14:24:55.187Z,57.60
2018-05-10T14:27:23.500Z,58.20
2018-05-10T14:29:51.025Z,58.10
2018-05-10T14:32:19.348Z,59.00
2018-05-10T14:34:46.879Z,59.00
2018-05-10T14:37:14.440Z,59.50
2018-05-10T14:39:41.970Z,59.90
2018-05-10T14:42:09.525Z,60.20
2018-05-10T14:44:37.050Z,60.70
2018-05-10T14:47:04.618Z,61.10
2018-05-10T14:49:32.145Z,61.40
2018-05-10T14:51:59.721Z,61.70
2018-05-10T14:54:27.244Z,61.70
2018-05-10T14:56:55.572Z,61.10
2018-05-10T14:59:23.097Z,61.10
2018-05-10T15:01:50.612Z,61.50
2018-05-10T15:04:18.953Z,62.10
2018-05-10T15:06:46.474Z,62.10
2018-05-10T15:09:14.798Z,62.90
2018-05-10T15:11:42.324Z,62.70
2018-05-10T15:14:10.650Z,63.30
2018-05-10T15:16:38.168Z,63.30
2018-05-10T15:19:05.728Z,63.40
2018-05-10T15:21:33.252Z,63.60
2018-05-10T15:24:00.808Z,63.90
2018-05-10T15:26:28.333Z,63.80
2018-05-10T15:28:55.895Z,64.00
2018-05-10T15:31:23.430Z,63.90
2018-05-10T15:33:50.997Z,64.00
2018-05-10T15:36:18.519Z,64.20
2018-05-10T15:38:46.073Z,64.10
2018-05-10T15:41:13.592Z,64.10
2018-05-10T15:43:41.165Z,64.30
2018-05-10T15:46:08.689Z,64.30
2018-05-10T15:48:36.208Z,64.40
2018-05-10T15:51:03.773Z,64.50
2018-05-10T15:53:31.293Z,64.80
2018-05-10T15:55:58.853Z,65.00
2018-05-10T15:58:26.376Z,65.20
2018-05-10T16:00:54.732Z,65.30
2018-05-10T16:03:22.254Z,65.30
2018-05-10T16:05:49.814Z,65.30
2018-05-10T16:08:17.331Z,65.20
2018-05-10T16:10:45.661Z,65.40
2018-05-10T16:13:13.184Z,65.40
2018-05-10T16:15:40.736Z,65.30
2018-05-10T16:18:09.035Z,64.90
2018-05-10T16:20:36.594Z,64.90
2018-05-10T16:23:04.134Z,64.90
2018-05-10T16:25:32.456Z,64.70
2018-05-10T16:27:59.982Z,64.60
2018-05-10T16:30:27.540Z,64.40
2018-05-10T16:32:55.128Z,64.50
2018-05-10T16:35:23.413Z,64.90
2018-05-10T16:37:50.945Z,64.80
2018-05-10T16:40:18.469Z,64.40
2018-05-10T16:42:46.029Z,64.70
2018-05-10T16:45:14.332Z,64.30
2018-05-10T16:47:42.653Z,64.30
2018-05-10T16:50:10.172Z,64.20
2018-05-10T16:52:38.498Z,64.40
2018-05-10T16:55:06.093Z,64.30
2018-05-10T16:57:34.413Z,64.30
2018-05-10T17:00:01.937Z,64.30
2018-05-10T17:02:30.256Z,64.30
2018-05-10T17:04:57.773Z,64.30
2018-05-10T17:07:26.091Z,63.40
2018-05-10T17:09:53.614Z,63.30
2018-05-10T17:12:22.807Z,62.90
2018-05-10T17:14:50.418Z,62.90
2018-05-10T17:17:17.970Z,63.20
2018-05-10T17:19:45.491Z,63.30
2018-05-10T17:22:13.823Z,63.20
2018-05-10T17:24:41.349Z,63.10
2018-05-10T17:27:08.901Z,62.90
2018-05-10T17:29:37.188Z,62.90
2018-05-10T17:32:04.740Z,62.80
2018-05-10T17:34:33.021Z,62.70
2018-05-10T17:37:00.584Z,62.60
2018-05-10T17:39:28.115Z,62.40
2018-05-10T17:41:55.638Z,62.50
2018-05-10T17:44:23.184Z,62.40
2018-05-10T17:46:50.713Z,62.40
2018-05-10T17:49:19.036Z,62.80
2018-05-10T17:51:46.568Z,62.70
2018-05-10T17:54:14.133Z,62.70
2018-05-10T17:56:41.660Z,62.70
2018-05-10T17:59:09.985Z,62.60
2018-05-10T18:01:37.505Z,62.60
2018-05-10T18:04:05.823Z,62.40
2018-05-10T18:06:33.352Z,62.30
2018-05-10T18:09:00.915Z,62.30
2018-05-10T18:11:29.196Z,62.30
2018-05-10T18:13:56.842Z,62.30
2018-05-10T18:16:24.293Z,61.90
2018-05-10T18:18:52.633Z,62.10
2018-05-10T18:21:20.160Z,62.10
2018-05-10T18:23:47.724Z,62.10
2018-05-10T18:26:15.255Z,61.70
2018-05-10T18:28:43.586Z,61.50
2018-05-10T18:31:11.113Z,61.40
2018-05-10T18:33:38.679Z,61.30
2018-05-10T18:36:06.200Z,61.40
2018-05-10T18:38:33.893Z,61.20
2018-05-10T18:41:01.447Z,61.40
2018-05-10T18:43:28.976Z,61.70
2018-05-10T18:45:56.537Z,62.50
2018-05-10T18:48:24.060Z,61.80
2018-05-10T18:50:51.617Z,61.80
2018-05-10T18:53:19.137Z,61.70
2018-05-10T18:55:47.465Z,61.90
2018-05-10T18:58:14.984Z,61.90
2018-05-10T19:00:43.309Z,62.00
2018-05-10T19:03:10.839Z,62.60
2018-05-10T19:05:38.411Z,62.20
2018-05-10T19:08:05.928Z,62.00
2018-05-10T19:10:34.254Z,62.20
2018-05-10T19:13:01.780Z,62.10
2018-05-10T19:15:30.181Z,62.20
2018-05-10T19:17:57.655Z,62.10
2018-05-10T19:20:25.219Z,62.20
2018-05-10T19:22:52.749Z,62.10
2018-05-10T19:25:20.311Z,62.10
2018-05-10T19:27:47.845Z,62.10
2018-05-10T19:30:16.168Z,62.10
2018-05-10T19:32:43.697Z,62.10
2018-05-10T19:35:12.039Z,62.40
2018-05-10T19:37:39.568Z,62.30
2018-05-10T19:40:07.116Z,62.40
2018-05-10T19:42:34.649Z,62.40
2018-05-10T19:45:03.022Z,62.70
2018-05-10T19:47:31.350Z,62.70
2018-05-10T19:49:58.909Z,62.70
2018-05-10T19:52:26.436Z,62.80
2018-05-10T19:54:54.004Z,63.00
2018-05-10T19:57:21.585Z,63.00
2018-05-10T19:59:49.137Z,63.00
2018-05-10T20:02:16.689Z,63.10
2018-05-10T20:04:44.216Z,63.20
2018-05-10T20:07:12.541Z,63.50
2018-05-10T20:09:40.641Z,63.40
2018-05-10T20:12:08.269Z,63.60
2018-05-10T20:14:35.795Z,63.80
2018-05-10T20:17:04.182Z,64.10
2018-05-10T20:19:31.675Z,64.00
2018-05-10T20:21:59.232Z,64.10
2018-05-10T20:24:26.761Z,64.10
2018-05-10T20:26:55.076Z,64.10
2018-05-10T20:29:22.600Z,64.00
2018-05-10T20:31:50.925Z,64.10
2018-05-10T20:34:18.455Z,64.00
2018-05-10T20:36:46.023Z,64.10
2018-05-10T20:39:13.548Z,64.00
2018-05-10T20:41:41.901Z,64.10
2018-05-10T20:44:09.421Z,64.00
2018-05-10T20:46:36.980Z,64.20
2018-05-10T20:49:04.512Z,64.20
2018-05-10T20:51:32.831Z,64.40
2018-05-10T20:54:00.353Z,64.40
2018-05-10T20:56:28.673Z,64.60
2018-05-10T20:58:56.201Z,64.40
2018-05-10T21:01:23.752Z,64.50
2018-05-10T21:03:52.041Z,64.60
2018-05-10T21:06:19.602Z,64.60
2018-05-10T21:08:47.136Z,64.60
2018-05-10T21:11:14.691Z,64.80
2018-05-10T21:13:42.225Z,64.90
2018-05-10T21:16:10.008Z,65.00
2018-05-10T21:18:37.532Z,65.20
2018-05-10T21:21:05.096Z,65.30
2018-05-10T21:23:32.625Z,65.40
2018-05-10T21:26:00.219Z,65.60
2018-05-10T21:28:28.496Z,66.60
2018-05-10T21:30:56.018Z,65.90
2018-05-10T21:33:24.340Z,66.50
2018-05-10T21:35:51.859Z,66.50
2018-05-10T21:38:19.413Z,66.80
2018-05-10T21:40:47.706Z,67.10
2018-05-10T21:43:15.260Z,67.00
2018-05-10T21:45:42.792Z,67.20
2018-05-10T21:48:10.352Z,67.40
2018-05-10T21:50:37.880Z,68.40
2018-05-10T21:53:05.436Z,68.20
2018-05-10T21:55:33.070Z,68.00
2018-05-10T21:58:00.629Z,68.00
2018-05-10T22:00:28.163Z,68.20
2018-05-10T22:02:55.721Z,68.40
2018-05-10T22:05:24.012Z,68.70
2018-05-10T22:07:52.347Z,68.80
2018-05-10T22:10:19.884Z,68.80
2018-05-10T22:12:47.438Z,68.90
2018-05-10T22:15:14.964Z,69.10
2018-05-10T22:17:43.284Z,69.60
2018-05-10T22:20:10.814Z,69.50
2018-05-10T22:22:38.425Z,69.70
2018-05-10T22:25:05.916Z,69.80
2018-05-10T22:27:33.471Z,69.80
2018-05-10T22:30:01.021Z,70.10
2018-05-10T22:32:28.581Z,70.90
2018-05-10T22:34:56.109Z,70.20
2018-05-10T22:37:23.669Z,70.40
2018-05-10T22:39:51.197Z,70.50
2018-05-10T22:42:18.722Z,70.60
2018-05-10T22:44:46.277Z,70.90
2018-05-10T22:47:13.800Z,70.90
2018-05-10T22:49:41.359Z,71.10
2018-05-10T22:52:08.880Z,70.90
2018-05-10T22:54:37.204Z,70.80
2018-05-10T22:57:04.725Z,70.70
2018-05-10T22:59:33.057Z,70.60
2018-05-10T23:02:01.353Z,70.40
2018-05-10T23:04:28.908Z,70.30
2018-05-10T23:06:56.437Z,70.20
2018-05-10T23:09:23.989Z,70.20
2018-05-10T23:11:51.561Z,70.10
2018-05-10T23:14:19.112Z,70.30
2018-05-10T23:16:46.676Z,70.00
2018-05-10T23:19:14.232Z,69.80
2018-05-10T23:21:41.748Z,69.90
2018-05-10T23:24:09.299Z,69.80
2018-05-10T23:26:36.820Z,69.90
2018-05-10T23:29:04.372Z,69.80
2018-05-10T23:31:31.892Z,70.00
2018-05-10T23:34:00.217Z,70.00
2018-05-10T23:36:27.740Z,69.90
2018-05-10T23:38:56.056Z,70.10
2018-05-10T23:41:23.580Z,70.10
2018-05-10T23:43:51.909Z,70.20
2018-05-10T23:46:19.437Z,70.10
2018-05-10T23:48:46.994Z,70.20
2018-05-10T23:51:14.526Z,70.40
2018-05-10T23:53:42.864Z,70.70
2018-05-10T23:56:10.395Z,70.60
2018-05-10T23:58:37.918Z,70.50
